Time;durP1;ratioP1;P1;durP2;ratioP2;P2;SDS_P1;SDS_P2;PMS_P1;PMS_P2;Temp;Humidity;BMP_temperature;BMP_pressure;BME280_temperature;BME280_humidity;BME280_pressure;Samples;Min_cycle;Max_cycle;Signal;HPM_P1;HPM_P2
2022/10/28 00:01:12;;;;;;;;;7.00;7.00;;;;;17.02;76.53;101718.06;4969716;28;8880;-68
2022/10/28 00:03:42;;;;;;;;;7.50;6.75;;;;;17.01;76.75;101710.94;4968131;28;8886;-68
2022/10/28 00:06:12;;;;;;;;;6.25;6.25;;;;;16.98;76.60;101704.06;4965649;28;8828;-67
2022/10/28 00:08:38;;;;;;;;;7.50;7.25;;;;;16.99;76.40;101703.00;4962596;28;8863;-68
2022/10/28 00:11:11;;;;;;;;;7.00;3.75;;;;;16.97;76.15;101715.97;4967336;28;8882;-68
2022/10/28 00:13:38;;;;;;;;;8.75;8.50;;;;;16.94;76.36;101704.69;4961517;28;8843;-68
2022/10/28 00:16:10;;;;;;;;;10.00;6.75;;;;;16.93;76.45;101712.00;4963638;28;8840;-67
2022/10/28 00:18:37;;;;;;;;;13.33;9.67;;;;;16.91;76.26;101713.28;4963197;28;9918;-68
2022/10/28 00:21:12;;;;;;;;;9.33;9.33;;;;;16.86;76.75;101707.66;4965281;28;8976;-68
2022/10/28 00:23:39;;;;;;;;;13.00;10.50;;;;;16.81;76.58;101700.13;4959769;28;9050;-67
2022/10/28 00:26:11;;;;;;;;;7.25;7.25;;;;;16.78;76.58;101697.84;4966756;28;8930;-68
2022/10/28 00:28:58;;;;;;;;;6.75;6.75;;;;;16.77;76.64;101697.03;4961459;28;8836;-69
2022/10/28 00:31:27;;;;;;;;;10.50;8.75;;;;;16.75;76.69;101696.38;4964627;28;8858;-67
2022/10/28 00:33:54;;;;;;;;;9.67;9.00;;;;;16.72;76.79;101701.38;4963374;28;8866;-68
2022/10/28 00:36:23;;;;;;;;;12.00;11.33;;;;;16.70;76.67;101704.31;4962313;28;9024;-69
2022/10/28 00:38:52;;;;;;;;;8.00;7.00;;;;;16.69;76.73;101699.09;4966582;28;8954;-68
2022/10/28 00:41:22;;;;;;;;;9.00;8.33;;;;;16.70;76.55;101707.03;4964601;28;8881;-68
2022/10/28 00:43:51;;;;;;;;;14.33;11.00;;;;;16.70;76.76;101698.06;4968172;28;8895;-68
2022/10/28 00:46:25;;;;;;;;;13.00;11.00;;;;;16.68;76.77;101705.56;4960394;28;9729;-67
2022/10/28 00:49:28;;;;;;;;;11.33;10.00;;;;;16.67;76.67;101699.31;4956830;28;9292;-68
2022/10/28 00:52:01;;;;;;;;;11.00;8.33;;;;;16.68;76.86;101700.97;4954373;28;8922;-68
2022/10/28 00:54:29;;;;;;;;;13.00;10.50;;;;;16.68;76.68;101700.13;4965307;28;9016;-66
2022/10/28 00:56:58;;;;;;;;;13.00;11.75;;;;;16.67;76.53;101701.19;4964647;28;8872;-67
2022/10/28 00:59:28;;;;;;;;;10.00;9.67;;;;;16.65;76.67;101695.13;4965560;28;8831;-68
2022/10/28 01:01:55;;;;;;;;;9.25;7.00;;;;;16.65;76.56;101692.41;4959216;28;8946;-68
2022/10/28 01:04:21;;;;;;;;;9.00;8.00;;;;;16.64;76.90;101690.75;4965518;28;8843;-68
2022/10/28 01:06:50;;;;;;;;;9.33;9.33;;;;;16.63;76.80;101689.06;4954653;28;8994;-66
2022/10/28 01:09:16;;;;;;;;;9.67;9.67;;;;;16.62;76.55;101688.25;4959500;28;8937;-67
2022/10/28 01:12:18;;;;;;;;;14.33;12.00;;;;;16.60;76.89;101692.22;4963928;28;9106;-66
2022/10/28 01:15:15;;;;;;;;;13.00;13.00;;;;;16.60;76.75;101687.63;4964104;28;9077;-68
2022/10/28 01:18:09;;;;;;;;;10.33;10.33;;;;;16.59;77.08;101688.66;4956181;28;9095;-68
2022/10/28 01:21:13;;;;;;;;;11.67;11.00;;;;;16.56;76.90;101683.66;4968060;28;9015;-65
2022/10/28 01:24:37;;;;;;;;;11.00;10.00;;;;;16.54;76.74;101681.16;4958194;28;9108;-66
2022/10/28 01:27:32;;;;;;;;;16.00;16.00;;;;;16.49;76.78;101678.25;4963392;28;8849;-67
2022/10/28 01:30:07;;;;;;;;;15.00;12.67;;;;;16.45;76.91;101670.75;4952875;28;8992;-69
2022/10/28 01:32:57;;;;;;;;;13.33;12.00;;;;;16.42;77.15;101658.41;4957122;28;8959;-67
2022/10/28 01:35:28;;;;;;;;;16.67;14.33;;;;;16.41;77.29;101661.34;4962365;28;9165;-68
2022/10/28 01:38:33;;;;;;;;;16.00;12.00;;;;;16.41;77.29;101672.22;4961571;28;9072;-67
2022/10/28 01:41:12;;;;;;;;;11.00;10.67;;;;;16.42;77.26;101665.72;4958019;28;9065;-67
2022/10/28 01:43:38;;;;;;;;;10.67;10.67;;;;;16.41;77.31;101669.50;4960184;28;9096;-67
2022/10/28 01:46:14;;;;;;;;;10.00;10.00;;;;;16.39;77.21;101666.13;4954943;28;9014;-67
2022/10/28 01:48:44;;;;;;;;;14.00;14.00;;;;;16.36;77.49;101655.69;4955565;28;9096;-68
2022/10/28 01:51:29;;;;;;;;;11.33;11.33;;;;;16.36;77.56;101661.13;4970189;28;9059;-67
2022/10/28 01:53:59;;;;;;;;;11.00;10.33;;;;;16.34;77.78;101653.19;4965980;28;8915;-67
2022/10/28 01:56:31;;;;;;;;;9.75;8.50;;;;;16.34;77.33;101650.47;4955852;28;9038;-66
2022/10/28 01:59:00;;;;;;;;;13.50;10.75;;;;;16.36;77.54;101644.81;4963069;28;8826;-67
2022/10/28 02:01:28;;;;;;;;;11.00;10.00;;;;;16.31;77.45;101640.84;4964587;28;8859;-67
2022/10/28 02:03:55;;;;;;;;;10.67;10.67;;;;;16.33;77.62;101629.81;4965198;28;8925;-67
2022/10/28 02:06:26;;;;;;;;;10.00;9.00;;;;;16.37;77.43;101632.94;4958439;28;9039;-66
2022/10/28 02:08:52;;;;;;;;;12.67;12.00;;;;;16.35;77.38;101627.69;4964277;28;8917;-66
2022/10/28 02:11:21;;;;;;;;;11.50;9.00;;;;;16.36;77.11;101632.06;4964868;28;9721;-67
2022/10/28 02:14:23;;;;;;;;;8.75;8.75;;;;;16.37;77.36;101630.22;4962106;28;8889;-67
2022/10/28 02:17:04;;;;;;;;;13.00;13.00;;;;;16.37;77.25;101635.66;4962700;28;8856;-68
2022/10/28 02:19:43;;;;;;;;;13.00;10.33;;;;;16.37;77.29;101627.50;4963322;28;8871;-67
2022/10/28 02:22:40;;;;;;;;;14.33;9.00;;;;;16.36;77.34;101629.34;4963956;28;9014;-66
2022/10/28 02:25:21;;;;;;;;;11.25;10.25;;;;;16.35;77.24;101630.41;4961902;28;9013;-68
2022/10/28 02:28:00;;;;;;;;;11.25;8.50;;;;;16.37;77.48;101613.91;4959932;28;8849;-68
2022/10/28 02:30:52;;;;;;;;;9.67;9.00;;;;;16.36;77.48;101617.66;4955474;28;8956;-67
2022/10/28 02:33:24;;;;;;;;;10.67;8.67;;;;;16.36;77.09;101614.94;4967929;28;8926;-68
2022/10/28 02:35:56;;;;;;;;;16.00;14.33;;;;;16.32;76.90;101609.91;4961322;28;8994;-68
2022/10/28 02:38:32;;;;;;;;;17.33;16.33;;;;;16.32;77.02;101615.34;4961414;28;8999;-67
2022/10/28 02:41:05;;;;;;;;;10.50;10.50;;;;;16.31;77.28;101610.97;4968478;28;8952;-67
2022/10/28 02:43:35;;;;;;;;;12.00;9.00;;;;;16.32;76.88;101609.91;4962675;28;8876;-68
2022/10/28 02:46:03;;;;;;;;;11.50;11.00;;;;;16.31;77.03;101604.72;4972033;28;8923;-69
2022/10/28 02:48:32;;;;;;;;;7.50;7.50;;;;;16.30;77.14;101614.75;4972038;28;8844;-68
2022/10/28 02:51:22;;;;;;;;;9.75;8.75;;;;;16.31;77.03;101619.13;4967299;28;8830;-68
2022/10/28 02:53:59;;;;;;;;;13.67;12.67;;;;;16.29;76.62;101610.38;4960814;28;8827;-68
2022/10/28 02:56:29;;;;;;;;;12.00;12.00;;;;;16.24;76.95;101612.88;4960447;28;9021;-68
2022/10/28 02:58:55;;;;;;;;;12.67;11.00;;;;;16.21;76.82;101617.91;4970043;28;9731;-67
2022/10/28 03:01:21;;;;;;;;;14.00;13.00;;;;;16.19;77.17;101609.97;4965568;28;9703;-68
2022/10/28 03:03:48;;;;;;;;;17.00;15.33;;;;;16.15;77.32;101611.44;4958614;28;8857;-69
2022/10/28 03:06:14;;;;;;;;;14.00;11.25;;;;;16.16;77.08;101606.84;4962381;28;9032;-69
2022/10/28 03:08:41;;;;;;;;;10.00;9.67;;;;;16.12;77.02;101603.69;4969056;28;9661;-69
2022/10/28 03:11:07;;;;;;;;;15.00;13.00;;;;;16.09;77.53;101603.31;4965018;28;8936;-68
2022/10/28 03:13:33;;;;;;;;;12.00;12.00;;;;;16.10;77.41;101596.84;4963581;28;8941;-68
2022/10/28 03:16:00;;;;;;;;;14.67;13.00;;;;;16.06;77.58;101599.97;4969176;28;8942;-68
2022/10/28 03:18:26;;;;;;;;;12.67;12.00;;;;;16.07;77.36;101607.06;4962631;28;8940;-68
2022/10/28 03:20:53;;;;;;;;;16.67;13.33;;;;;16.06;77.19;101599.97;4968904;28;8919;-69
2022/10/28 03:23:24;;;;;;;;;13.33;13.00;;;;;16.05;77.15;101603.75;4958012;28;8954;-69
2022/10/28 03:25:50;;;;;;;;;13.00;12.33;;;;;16.05;77.25;101600.19;4960738;28;9070;-67
2022/10/28 03:28:17;;;;;;;;;12.67;10.00;;;;;16.06;77.37;101601.84;4968055;28;8995;-69
2022/10/28 03:30:43;;;;;;;;;14.67;13.33;;;;;16.06;77.21;101594.53;4971601;28;8999;-68
2022/10/28 03:33:09;;;;;;;;;10.00;9.00;;;;;16.06;77.25;101591.81;4961733;28;8923;-69
2022/10/28 03:35:36;;;;;;;;;10.00;8.00;;;;;16.06;77.29;101591.81;4967778;28;8998;-68
2022/10/28 03:38:02;;;;;;;;;12.67;10.00;;;;;16.06;77.33;101591.81;4962950;28;9103;-69
2022/10/28 03:40:29;;;;;;;;;14.00;12.67;;;;;16.04;77.20;101591.22;4964365;28;9069;-68
2022/10/28 03:42:55;;;;;;;;;12.67;12.33;;;;;16.03;76.96;101577.81;4962566;28;9142;-68
2022/10/28 03:45:22;;;;;;;;;15.67;14.00;;;;;16.02;77.10;101578.88;4964415;28;9070;-69
2022/10/28 03:47:48;;;;;;;;;11.67;10.67;;;;;16.01;77.10;101578.03;4962007;28;9081;-69
2022/10/28 03:50:15;;;;;;;;;14.67;13.67;;;;;16.03;77.34;101584.09;4958596;28;9166;-69
2022/10/28 03:52:43;;;;;;;;;9.67;9.33;;;;;16.02;77.07;101587.03;4969522;28;9106;-68
2022/10/28 03:55:10;;;;;;;;;16.33;12.67;;;;;16.01;77.32;101586.19;4964121;28;9791;-68
2022/10/28 03:57:36;;;;;;;;;11.00;11.00;;;;;16.02;77.26;101582.44;4958141;28;9018;-68
2022/10/28 04:00:03;;;;;;;;;8.33;8.33;;;;;15.99;77.17;101579.28;4966056;28;9004;-69
2022/10/28 04:02:37;;;;;;;;;11.33;10.33;;;;;15.95;76.97;101583.47;4965307;28;8951;-67
2022/10/28 04:05:03;;;;;;;;;13.67;11.67;;;;;15.94;77.55;101576.38;4970163;28;8924;-68
2022/10/28 04:07:30;;;;;;;;;11.00;9.67;;;;;15.93;77.46;101574.72;4964524;28;9204;-68
2022/10/28 04:09:56;;;;;;;;;11.00;11.00;;;;;15.95;77.52;101578.06;4962700;28;9048;-68
2022/10/28 04:12:22;;;;;;;;;9.75;9.75;;;;;15.90;77.47;101581.41;4963885;28;9004;-68
2022/10/28 04:14:49;;;;;;;;;13.00;11.67;;;;;15.91;77.28;101577.63;4962055;28;8843;-67
2022/10/28 04:17:15;;;;;;;;;10.67;10.00;;;;;15.91;77.34;101572.22;4960028;28;8952;-67
2022/10/28 04:19:42;;;;;;;;;10.00;9.00;;;;;15.92;77.22;101582.03;4965526;28;9063;-68
2022/10/28 04:22:08;;;;;;;;;10.33;9.00;;;;;15.92;77.48;101581.19;4964029;28;9006;-68
2022/10/28 04:24:35;;;;;;;;;9.33;9.00;;;;;15.92;77.21;101583.91;4963215;28;9076;-69
2022/10/28 04:27:01;;;;;;;;;11.00;8.33;;;;;15.91;77.15;101582.25;4965097;28;9029;-68
2022/10/28 04:29:27;;;;;;;;;11.33;9.33;;;;;15.90;77.11;101572.44;4962833;28;8990;-66
2022/10/28 04:31:54;;;;;;;;;9.33;9.33;;;;;15.86;77.60;101568.47;4958843;28;9007;-67
2022/10/28 04:34:20;;;;;;;;;12.00;10.00;;;;;15.90;77.37;101577.84;4969534;28;9107;-68
2022/10/28 04:36:46;;;;;;;;;11.67;9.67;;;;;15.90;77.59;101575.97;4963709;28;9209;-68
2022/10/28 04:39:13;;;;;;;;;11.00;10.33;;;;;15.93;77.36;101578.28;4961942;28;9086;-68
2022/10/28 04:41:39;;;;;;;;;7.67;7.67;;;;;15.95;77.42;101567.19;4959555;28;9147;-68
2022/10/28 04:44:06;;;;;;;;;7.67;7.67;;;;;15.95;77.02;101564.47;4953525;28;9227;-67
2022/10/28 04:46:32;;;;;;;;;7.67;7.67;;;;;15.92;77.12;101567.59;4964479;28;9011;-67
2022/10/28 04:48:58;;;;;;;;;9.00;7.33;;;;;15.92;77.56;101564.88;4966109;28;9058;-68
2022/10/28 04:51:25;;;;;;;;;8.33;7.67;;;;;15.95;77.17;101561.75;4960646;28;9098;-66
2022/10/28 04:53:51;;;;;;;;;7.00;5.00;;;;;15.95;77.14;101564.47;4967607;28;8922;-68
2022/10/28 04:56:17;;;;;;;;;11.00;10.67;;;;;15.94;76.95;101573.69;4962751;28;8991;-68
2022/10/28 04:58:45;;;;;;;;;13.00;9.67;;;;;15.96;77.20;101571.56;4962427;28;9018;-68
2022/10/28 05:01:12;;;;;;;;;12.67;8.00;;;;;15.95;76.84;101557.16;4967428;28;9041;-68
2022/10/28 05:03:38;;;;;;;;;7.00;7.00;;;;;15.95;77.14;101549.00;4960288;28;9063;-67
2022/10/28 05:06:05;;;;;;;;;13.00;12.00;;;;;15.88;77.33;101553.66;4961968;28;9076;-68
2022/10/28 05:08:31;;;;;;;;;10.67;10.00;;;;;15.91;77.74;101553.19;4962015;28;9089;-67
2022/10/28 05:10:58;;;;;;;;;10.33;9.33;;;;;15.94;77.29;101554.66;4961621;28;9103;-67
2022/10/28 05:13:24;;;;;;;;;9.67;8.00;;;;;15.95;77.07;101559.03;4962560;28;9076;-66
2022/10/28 05:15:50;;;;;;;;;7.00;6.00;;;;;15.99;77.08;101557.56;4959409;28;8969;-66
2022/10/28 05:18:17;;;;;;;;;9.50;9.00;;;;;15.96;76.79;101558.00;4961963;28;8931;-67
2022/10/28 05:20:44;;;;;;;;;11.67;9.67;;;;;15.96;77.11;101560.69;4960060;28;9559;-66
2022/10/28 05:23:10;;;;;;;;;11.00;7.67;;;;;15.95;76.77;101564.47;4958246;28;8944;-68
2022/10/28 05:25:36;;;;;;;;;8.33;6.67;;;;;15.94;77.01;101560.09;4962426;28;9023;-65
2022/10/28 05:28:04;;;;;;;;;10.33;10.00;;;;;15.92;76.67;101554.03;4962883;28;9109;-67
2022/10/28 05:30:30;;;;;;;;;9.33;9.33;;;;;15.91;77.08;101555.09;4959202;28;9173;-68
2022/10/28 05:33:01;;;;;;;;;9.00;8.00;;;;;15.87;77.51;101545.69;4960152;28;9092;-67
2022/10/28 05:35:29;;;;;;;;;12.67;9.00;;;;;15.90;77.17;101542.56;4962408;28;9384;-66
2022/10/28 05:37:56;;;;;;;;;9.00;9.00;;;;;15.91;76.85;101539.63;4966153;28;9173;-66
2022/10/28 05:40:22;;;;;;;;;9.67;9.00;;;;;15.90;77.14;101548.00;4963503;28;9040;-66
2022/10/28 05:42:49;;;;;;;;;10.00;9.00;;;;;15.94;76.81;101546.53;4966498;28;9048;-66
2022/10/28 05:45:16;;;;;;;;;7.00;7.00;;;;;15.95;76.87;101546.28;4967121;28;9022;-67
2022/10/28 05:47:47;;;;;;;;;9.33;7.33;;;;;15.96;76.55;101537.13;4964660;28;9862;-66
2022/10/28 05:50:15;;;;;;;;;6.00;6.00;;;;;15.94;76.59;101547.34;4969821;28;8916;-66
2022/10/28 05:52:50;;;;;;;;;4.67;4.67;;;;;15.91;76.38;101545.06;4958587;28;8864;-66
2022/10/28 05:55:18;;;;;;;;;6.00;6.00;;;;;15.89;76.51;101554.47;4962065;28;9188;-65
2022/10/28 05:57:46;;;;;;;;;8.33;6.67;;;;;15.88;77.13;101552.78;4962714;28;9006;-66
2022/10/28 06:00:13;;;;;;;;;13.33;12.33;;;;;15.82;76.56;101546.34;4958639;28;9726;-65
2022/10/28 06:02:40;;;;;;;;;10.33;8.33;;;;;15.83;76.92;101559.69;4960498;28;9253;-67
2022/10/28 06:05:08;;;;;;;;;9.33;9.33;;;;;15.87;76.66;101553.84;4966879;28;9334;-66
2022/10/28 06:07:35;;;;;;;;;13.00;10.00;;;;;15.82;76.86;101558.03;4960907;28;9075;-68
2022/10/28 06:10:02;;;;;;;;;10.67;10.67;;;;;15.82;76.62;101557.19;4966162;28;9229;-66
2022/10/28 06:12:29;;;;;;;;;13.67;10.33;;;;;15.81;76.58;101559.06;4962744;28;9274;-66
2022/10/28 06:14:56;;;;;;;;;7.67;7.67;;;;;15.81;76.91;101545.50;4963267;28;9187;-66
2022/10/28 06:17:22;;;;;;;;;16.33;12.67;;;;;15.80;76.45;101552.00;4967250;28;9746;-68
2022/10/28 06:19:49;;;;;;;;;10.33;9.33;;;;;15.79;76.61;101550.28;4964190;28;9885;-67
2022/10/28 06:22:15;;;;;;;;;12.00;8.00;;;;;15.78;76.66;101545.09;4963766;28;9100;-66
2022/10/28 06:24:41;;;;;;;;;10.00;9.00;;;;;15.76;76.69;101548.03;4965992;28;9096;-66
2022/10/28 06:27:08;;;;;;;;;9.67;7.33;;;;;15.78;76.51;101554.06;4965693;28;9090;-66
2022/10/28 06:29:34;;;;;;;;;10.67;7.33;;;;;15.79;76.50;101555.72;4958275;28;9682;-64
2022/10/28 06:32:01;;;;;;;;;11.00;8.33;;;;;15.80;76.71;101556.59;4964565;28;9067;-66
2022/10/28 06:34:27;;;;;;;;;10.33;9.00;;;;;15.79;76.51;101565.75;4965840;28;9169;-66
2022/10/28 06:36:53;;;;;;;;;9.00;8.00;;;;;15.80;76.80;101564.72;4963820;28;9922;-66
2022/10/28 06:39:20;;;;;;;;;5.33;5.33;;;;;15.77;76.08;101555.13;4967015;28;9264;-68
2022/10/28 06:41:46;;;;;;;;;6.67;6.67;;;;;15.75;76.68;101557.19;4956002;28;9159;-65
2022/10/28 06:44:13;;;;;;;;;9.67;9.33;;;;;15.71;76.32;101565.97;4960707;28;9195;-67
2022/10/28 06:46:39;;;;;;;;;6.33;6.33;;;;;15.74;76.55;101558.25;4965286;28;9234;-67
2022/10/28 06:49:05;;;;;;;;;6.33;6.33;;;;;15.74;76.29;101560.13;4967097;28;9087;-66
2022/10/28 06:51:32;;;;;;;;;9.00;5.33;;;;;15.75;76.54;101553.66;4970605;28;9922;-66
2022/10/28 06:53:59;;;;;;;;;9.67;7.00;;;;;15.75;76.58;101554.47;4971362;28;9276;-66
2022/10/28 06:56:25;;;;;;;;;8.33;7.67;;;;;15.77;76.51;101560.53;4970784;28;9249;-66
2022/10/28 06:58:53;;;;;;;;;9.00;7.33;;;;;15.79;76.73;101557.59;4965737;28;9221;-66
2022/10/28 07:01:20;;;;;;;;;6.00;6.00;;;;;15.81;76.38;101560.97;4964776;28;9757;-65
2022/10/28 07:03:47;;;;;;;;;7.00;6.00;;;;;15.83;76.43;101558.84;4954600;28;9177;-65
2022/10/28 07:06:16;;;;;;;;;8.00;7.67;;;;;15.83;76.19;101564.28;4969425;28;9197;-66
2022/10/28 07:08:42;;;;;;;;;9.00;7.67;;;;;15.83;76.49;101561.56;4967897;28;9193;-67
2022/10/28 07:11:09;;;;;;;;;11.00;10.00;;;;;15.83;76.46;101564.28;4968997;28;9705;-65
2022/10/28 07:13:35;;;;;;;;;9.00;7.00;;;;;15.84;76.45;101565.97;4957458;28;9027;-65
2022/10/28 07:16:04;;;;;;;;;6.33;5.67;;;;;15.88;76.51;101569.94;4967869;28;9095;-66
2022/10/28 07:18:30;;;;;;;;;6.00;6.00;;;;;15.87;76.18;101572.84;4965434;28;8913;-64
2022/10/28 07:21:00;;;;;;;;;9.67;6.67;;;;;15.87;76.11;101579.09;4963432;28;9602;-66
2022/10/28 07:23:28;;;;;;;;;9.00;9.00;;;;;15.86;76.35;101582.03;4956075;28;9229;-66
2022/10/28 07:25:55;;;;;;;;;6.67;6.67;;;;;15.87;76.07;101581.81;4954388;28;9259;-67
2022/10/28 07:28:22;;;;;;;;;11.33;10.33;;;;;15.85;75.88;101572.25;4960991;28;8933;-66
2022/10/28 07:30:49;;;;;;;;;10.00;10.00;;;;;15.88;76.00;101577.22;4960007;28;9182;-68
2022/10/28 07:33:15;;;;;;;;;6.00;6.00;;;;;15.92;76.37;101573.03;4959193;28;9092;-68
2022/10/28 07:35:43;;;;;;;;;8.00;8.00;;;;;15.95;76.21;101583.47;4959501;28;9046;-69
2022/10/28 07:38:10;;;;;;;;;8.33;7.67;;;;;15.98;76.17;101592.03;4972963;28;9026;-69
2022/10/28 07:40:37;;;;;;;;;6.33;6.00;;;;;16.02;75.98;101593.28;4970480;28;9836;-68
2022/10/28 07:43:03;;;;;;;;;8.67;8.67;;;;;16.06;75.77;101594.53;4967469;28;9076;-67
2022/10/28 07:45:30;;;;;;;;;9.00;8.00;;;;;16.10;76.08;101585.97;4968477;28;9081;-68
2022/10/28 07:47:56;;;;;;;;;8.00;6.67;;;;;16.17;75.74;101584.06;4965763;28;9185;-69
2022/10/28 07:50:22;;;;;;;;;8.67;8.67;;;;;16.23;75.48;101581.31;4966080;28;8963;-69
2022/10/28 07:52:49;;;;;;;;;10.33;9.67;;;;;16.28;75.40;101581.50;4969021;28;9110;-67
2022/10/28 07:55:15;;;;;;;;;11.00;9.00;;;;;16.34;75.49;101587.16;4968996;28;9010;-68
2022/10/28 07:57:42;;;;;;;;;10.67;9.67;;;;;16.39;74.97;101579.19;4970370;28;8988;-68
2022/10/28 08:00:09;;;;;;;;;6.75;6.75;;;;;16.47;75.08;101577.06;4964775;28;8950;-67
2022/10/28 08:02:36;;;;;;;;;10.67;9.67;;;;;16.50;74.99;101590.22;4964976;28;8946;-68
2022/10/28 08:05:03;;;;;;;;;9.67;7.33;;;;;16.50;74.76;101586.69;4969242;28;9026;-67
2022/10/28 08:07:30;;;;;;;;;14.00;9.33;;;;;16.44;74.80;101596.50;4971014;28;8997;-67
2022/10/28 08:10:03;;;;;;;;;10.67;8.00;;;;;16.43;75.06;101592.13;4956871;28;8946;-66
2022/10/28 08:12:29;;;;;;;;;9.75;7.25;;;;;16.42;75.17;101597.78;4968826;28;8991;-68
2022/10/28 08:14:56;;;;;;;;;11.00;8.33;;;;;16.44;74.90;101596.50;4964475;28;8846;-68
2022/10/28 08:17:22;;;;;;;;;8.50;7.50;;;;;16.47;75.10;101601.53;4964507;28;8945;-69
2022/10/28 08:19:49;;;;;;;;;11.00;11.00;;;;;16.46;74.73;101591.72;4963739;28;8855;-68
2022/10/28 08:22:15;;;;;;;;;9.00;9.00;;;;;16.46;74.67;101599.03;4961183;28;9061;-65
2022/10/28 08:24:41;;;;;;;;;9.50;9.00;;;;;16.47;74.79;101597.97;4964168;28;9098;-65
2022/10/28 08:27:08;;;;;;;;;10.75;10.75;;;;;16.50;74.47;101601.09;4969584;28;8858;-67
2022/10/28 08:29:34;;;;;;;;;11.00;11.00;;;;;16.47;74.23;101600.69;4961012;28;8871;-66
2022/10/28 08:32:01;;;;;;;;;9.00;7.25;;;;;16.50;74.51;101611.97;4961985;28;8962;-66
2022/10/28 08:34:28;;;;;;;;;17.75;13.25;;;;;16.46;74.59;101616.16;4961361;28;8900;-66
2022/10/28 08:36:56;;;;;;;;;11.00;8.00;;;;;16.48;74.35;101605.91;4958230;28;8838;-66
2022/10/28 08:39:22;;;;;;;;;11.33;10.33;;;;;16.50;74.79;101608.41;4965084;28;9710;-68
2022/10/28 08:42:01;;;;;;;;;8.75;8.75;;;;;16.51;74.50;101597.31;4964549;28;8976;-66
2022/10/28 08:44:40;;;;;;;;;12.33;11.67;;;;;16.50;74.35;101600.25;4963521;28;8852;-68
2022/10/28 08:47:34;;;;;;;;;13.00;13.00;;;;;16.50;74.68;101595.66;4970165;28;8989;-65
2022/10/28 08:50:10;;;;;;;;;10.00;8.67;;;;;16.48;74.59;101596.91;4959952;28;9030;-65
2022/10/28 08:52:52;;;;;;;;;10.67;10.33;;;;;16.50;74.67;101594.84;4962053;28;9049;-66
2022/10/28 08:55:24;;;;;;;;;9.00;8.33;;;;;16.50;74.72;101594.84;4969124;28;9016;-65
2022/10/28 08:57:55;;;;;;;;;6.75;6.75;;;;;16.52;74.36;101604.41;4956325;28;9012;-66
2022/10/28 09:00:28;;;;;;;;;8.00;5.33;;;;;16.58;74.68;101607.34;4963105;28;9551;-64
2022/10/28 09:03:04;;;;;;;;;8.00;8.00;;;;;16.63;74.34;101594.75;4963300;28;8995;-66
2022/10/28 09:05:31;;;;;;;;;14.00;11.00;;;;;16.62;74.49;101590.38;4958135;28;9003;-65
2022/10/28 09:07:59;;;;;;;;;10.33;9.00;;;;;16.60;74.57;101587.03;4964180;28;8992;-68
2022/10/28 09:11:03;;;;;;;;;3.75;3.50;;;;;16.67;74.32;101590.56;4966651;28;8960;-65
2022/10/28 09:13:44;;;;;;;;;9.00;8.00;;;;;16.69;74.14;101583.03;4958435;28;8843;-65
2022/10/28 09:16:26;;;;;;;;;10.00;10.00;;;;;16.66;74.42;101583.47;4958138;28;9071;-66
2022/10/28 09:18:56;;;;;;;;;3.25;3.25;;;;;16.72;74.23;101590.75;4966654;28;8972;-65
2022/10/28 09:21:44;;;;;;;;;8.50;3.75;;;;;16.81;74.29;101594.06;4969666;28;8852;-65
2022/10/28 09:24:18;;;;;;;;;7.00;7.00;;;;;16.83;74.19;101577.56;4959946;28;8862;-66
2022/10/28 09:27:04;;;;;;;;;8.33;8.33;;;;;16.80;74.13;101576.94;4961145;28;8877;-66
2022/10/28 09:30:05;;;;;;;;;7.75;7.75;;;;;16.84;73.92;101580.06;4961557;28;8927;-64
2022/10/28 09:32:56;;;;;;;;;8.75;8.75;;;;;16.93;74.03;101577.91;4961531;28;8828;-66
2022/10/28 09:35:27;;;;;;;;;10.33;10.33;;;;;16.90;74.08;101576.47;4970140;28;8934;-65
2022/10/28 09:38:06;;;;;;;;;10.25;9.75;;;;;16.99;74.14;101585.19;4959957;28;8998;-64
2022/10/28 09:40:35;;;;;;;;;12.00;10.33;;;;;17.05;74.12;101579.75;4960137;28;8847;-65
2022/10/28 09:43:14;;;;;;;;;12.00;9.25;;;;;17.15;73.76;101590.13;4965201;28;9015;-64
2022/10/28 09:45:45;;;;;;;;;6.00;4.75;;;;;17.21;73.28;101585.69;4961272;28;8839;-67
2022/10/28 09:48:34;;;;;;;;;6.50;6.00;;;;;17.30;73.49;101595.25;4969050;28;8844;-66
2022/10/28 09:51:01;;;;;;;;;10.50;8.75;;;;;17.30;72.89;101587.94;4963697;28;8839;-67
2022/10/28 09:53:30;;;;;;;;;10.75;8.50;;;;;17.32;72.83;101584.97;4960759;28;9614;-65
2022/10/28 09:56:02;;;;;;;;;11.67;10.67;;;;;17.39;73.01;101584.94;4964883;28;8989;-67
2022/10/28 09:58:29;;;;;;;;;11.75;10.00;;;;;17.46;73.06;101585.69;4967171;28;8984;-66
2022/10/28 10:00:55;;;;;;;;;10.00;9.00;;;;;17.52;72.82;101582.94;4964450;28;8842;-66
2022/10/28 10:03:22;;;;;;;;;9.50;8.50;;;;;17.63;72.35;101584.09;4968547;28;8886;-65
2022/10/28 10:05:53;;;;;;;;;6.75;6.50;;;;;17.66;72.25;101585.53;4963423;28;8846;-67
2022/10/28 10:08:21;;;;;;;;;9.25;9.25;;;;;17.67;72.25;101582.59;4961133;28;8815;-67
2022/10/28 10:10:53;;;;;;;;;8.50;8.00;;;;;17.75;72.31;101571.47;4966509;28;8846;-65
2022/10/28 10:13:26;;;;;;;;;7.67;7.33;;;;;17.75;72.18;101585.06;4967991;28;9578;-66
2022/10/28 10:15:57;;;;;;;;;12.25;10.00;;;;;17.71;72.11;101570.22;4973391;28;8948;-65
2022/10/28 10:18:28;;;;;;;;;9.50;8.25;;;;;17.75;72.15;101571.47;4965424;28;8835;-66
2022/10/28 10:20:57;;;;;;;;;10.00;9.00;;;;;17.70;72.55;101575.84;4963822;28;8823;-67
2022/10/28 10:23:33;;;;;;;;;11.75;9.50;;;;;17.68;72.57;101565.19;4964422;28;8874;-66
2022/10/28 10:26:04;;;;;;;;;9.75;9.50;;;;;17.71;72.31;101559.31;4971744;28;8958;-66
2022/10/28 10:28:50;;;;;;;;;9.75;7.00;;;;;17.73;72.45;101545.47;4963917;28;8919;-66
2022/10/28 10:31:26;;;;;;;;;9.50;9.00;;;;;17.84;72.31;101560.28;4963227;28;8885;-66
2022/10/28 10:33:55;;;;;;;;;9.25;8.00;;;;;17.85;72.39;101556.47;4964598;28;8863;-66
2022/10/28 10:36:27;;;;;;;;;13.00;10.50;;;;;17.84;72.20;101561.09;4968033;28;8966;-66
2022/10/28 10:39:01;;;;;;;;;10.50;9.25;;;;;17.92;72.26;101565.44;4968177;28;8840;-68
2022/10/28 10:41:38;;;;;;;;;7.50;7.50;;;;;17.99;72.02;101575.19;4958626;28;9568;-67
2022/10/28 10:44:19;;;;;;;;;10.00;9.50;;;;;18.14;71.91;101565.81;4963102;28;8864;-66
2022/10/28 10:47:08;;;;;;;;;11.50;11.00;;;;;18.12;71.65;101570.66;4967541;28;8832;-67
2022/10/28 10:49:35;;;;;;;;;8.25;7.50;;;;;18.16;71.46;101578.16;4965378;28;8824;-66
2022/10/28 10:52:14;;;;;;;;;8.50;7.75;;;;;18.23;71.54;101578.94;4957985;28;8947;-65
2022/10/28 10:54:47;;;;;;;;;16.75;10.75;;;;;18.26;71.58;101583.91;4956767;28;8824;-66
2022/10/28 10:57:21;;;;;;;;;11.00;10.75;;;;;18.21;71.78;101574.75;4968726;28;8852;-65
2022/10/28 10:59:50;;;;;;;;;13.75;10.00;;;;;18.28;71.62;101567.34;4966595;28;8875;-65
2022/10/28 11:02:46;;;;;;;;;10.75;10.75;;;;;18.26;71.94;101577.63;4960683;28;8944;-65
2022/10/28 11:05:21;;;;;;;;;7.50;6.25;;;;;18.29;71.72;101569.81;4951293;28;8843;-66
2022/10/28 11:07:57;;;;;;;;;5.25;5.25;;;;;18.37;71.64;101571.41;4958063;28;8973;-64
2022/10/28 11:10:30;;;;;;;;;10.50;10.00;;;;;18.33;71.76;101581.09;4954153;28;8854;-65
2022/10/28 11:13:01;;;;;;;;;9.50;8.50;;;;;18.38;71.65;101580.41;4963438;28;8892;-65
2022/10/28 11:15:29;;;;;;;;;10.75;9.25;;;;;18.41;71.57;101586.25;4964980;28;8832;-66
2022/10/28 11:17:59;;;;;;;;;11.50;11.50;;;;;18.39;71.61;101571.19;4976493;28;8850;-66
2022/10/28 11:20:34;;;;;;;;;11.00;9.75;;;;;18.33;71.87;101569.38;4960538;28;8817;-65
2022/10/28 11:23:19;;;;;;;;;8.25;7.50;;;;;18.38;71.95;101567.63;4962474;28;9544;-66
2022/10/28 11:25:50;;;;;;;;;14.00;9.50;;;;;18.32;72.16;101562.28;4958850;28;8856;-67
2022/10/28 11:28:41;;;;;;;;;7.75;7.75;;;;;18.36;72.08;101568.94;4965674;28;9616;-66
2022/10/28 11:31:22;;;;;;;;;12.00;9.00;;;;;18.28;72.29;101559.16;4953739;28;8871;-66
2022/10/28 11:34:12;;;;;;;;;12.75;12.25;;;;;18.22;72.42;101569.06;4964577;28;8807;-65
2022/10/28 11:37:10;;;;;;;;;11.25;11.25;;;;;18.27;72.35;101584.72;4966119;28;9776;-65
2022/10/28 11:40:06;;;;;;;;;12.75;11.50;;;;;18.31;72.46;101585.09;4953731;28;9594;-66
2022/10/28 11:42:44;;;;;;;;;11.00;11.00;;;;;18.40;72.10;101581.88;4974875;23;8871;-67
2022/10/28 11:45:18;;;;;;;;;8.25;8.25;;;;;18.49;72.20;101590.56;4963287;28;8840;-67
2022/10/28 11:48:11;;;;;;;;;11.25;8.00;;;;;18.54;72.07;101588.81;4960511;28;8875;-66